Time;durP1;ratioP1;P1;durP2;ratioP2;P2;SDS_P1;SDS_P2;PMS_P1;PMS_P2;Temp;Humidity;BMP_temperature;BMP_pressure;BME280_temperature;BME280_humidity;BME280_pressure;Samples;Min_cycle;Max_cycle;Signal;HPM_P1;HPM_P2
2022/09/29 00:00:12;;;;;;;0.00;0.00;;;8.40;99.90;;;;;;5037249;28;20045;-80
2022/09/29 00:02:38;;;;;;;0.00;0.00;;;8.40;99.90;;;;;;5053353;28;20115;-81
2022/09/29 00:05:04;;;;;;;0.00;0.00;;;8.40;99.90;;;;;;5053494;28;20469;-81
2022/09/29 00:07:31;;;;;;;0.00;0.00;;;8.40;99.90;;;;;;5036966;28;20055;-81
2022/09/29 00:09:57;;;;;;;0.00;0.00;;;8.40;99.90;;;;;;5053764;28;20594;-80
2022/09/29 00:12:23;;;;;;;0.00;0.00;;;8.40;99.90;;;;;;5053449;28;20048;-81
2022/09/29 00:14:49;;;;;;;0.52;0.10;;;8.40;99.90;;;;;;5052379;28;20060;-80
2022/09/29 00:17:15;;;;;;;0.00;0.00;;;8.40;99.90;;;;;;5036821;28;20056;-81
2022/09/29 00:19:40;;;;;;;0.00;0.00;;;8.30;99.90;;;;;;5054106;28;20041;-80
2022/09/29 00:22:06;;;;;;;0.00;0.00;;;8.30;99.90;;;;;;5036671;28;20131;-81
2022/09/29 00:24:33;;;;;;;0.00;0.00;;;8.30;99.90;;;;;;5053665;28;20049;-81
2022/09/29 00:26:59;;;;;;;0.00;0.00;;;8.30;99.90;;;;;;5036837;28;20056;-81
2022/09/29 00:29:25;;;;;;;0.00;0.00;;;8.30;99.90;;;;;;5055702;28;20041;-81
2022/09/29 00:31:51;;;;;;;0.10;0.00;;;8.20;99.90;;;;;;5058249;28;20072;-81
2022/09/29 00:34:17;;;;;;;4.57;1.17;;;8.20;99.90;;;;;;5038977;28;20128;-81
2022/09/29 00:36:43;;;;;;;0.10;0.00;;;8.20;99.90;;;;;;5053622;28;20488;-81
2022/09/29 00:39:08;;;;;;;0.00;0.00;;;8.20;99.90;;;;;;5053156;28;20084;-81
2022/09/29 00:41:36;;;;;;;0.00;0.00;;;8.20;99.90;;;;;;5036154;28;20084;-81
2022/09/29 00:44:06;;;;;;;0.00;0.00;;;8.20;99.90;;;;;;5052738;28;20095;-81
2022/09/29 00:46:52;;;;;;;0.00;0.00;;;8.20;99.90;;;;;;5036005;28;20148;-81
2022/09/29 00:49:26;;;;;;;0.10;0.10;;;8.10;99.90;;;;;;5036473;28;20516;-81
2022/09/29 00:52:06;;;;;;;0.10;0.10;;;8.10;99.90;;;;;;5053507;28;20045;-81
2022/09/29 00:54:38;;;;;;;0.00;0.00;;;8.10;99.90;;;;;;5036657;28;20103;-81
2022/09/29 00:57:07;;;;;;;0.00;0.00;;;8.00;99.90;;;;;;5036917;28;20566;-81
2022/09/29 00:59:57;;;;;;;0.00;0.00;;;8.00;99.90;;;;;;5053621;28;20493;-81
2022/09/29 01:02:23;;;;;;;0.10;0.00;;;8.00;99.90;;;;;;5037122;28;20118;-81
2022/09/29 01:04:52;;;;;;;0.00;0.00;;;7.90;99.90;;;;;;5052775;28;20045;-81
2022/09/29 01:07:24;;;;;;;0.00;0.00;;;7.80;99.90;;;;;;5036236;28;20501;-81
2022/09/29 01:09:53;;;;;;;0.00;0.00;;;7.80;99.90;;;;;;5036801;28;20110;-81
2022/09/29 01:12:20;;;;;;;0.00;0.00;;;7.80;99.90;;;;;;5053470;28;20053;-81
2022/09/29 01:14:47;;;;;;;0.00;0.00;;;7.90;99.90;;;;;;5052913;28;20055;-81
2022/09/29 01:17:13;;;;;;;0.00;0.00;;;7.70;99.90;;;;;;5053003;28;20114;-81
2022/09/29 01:19:50;;;;;;;0.00;0.00;;;7.60;99.90;;;;;;5052600;28;20072;-81
2022/09/29 01:22:32;;;;;;;0.00;0.00;;;7.70;99.90;;;;;;5036126;28;20045;-81
2022/09/29 01:25:31;;;;;;;0.00;0.00;;;7.60;99.90;;;;;;5036616;28;20041;-81
2022/09/29 01:28:32;;;;;;;0.00;0.00;;;7.60;99.90;;;;;;5056542;28;20484;-81
2022/09/29 01:31:35;;;;;;;0.00;0.00;;;7.60;99.90;;;;;;5039707;28;20507;-81
2022/09/29 01:34:09;;;;;;;0.00;0.00;;;7.60;99.90;;;;;;5056388;28;20049;-81
2022/09/29 01:36:56;;;;;;;0.00;0.00;;;7.50;99.90;;;;;;5039550;28;20087;-81
2022/09/29 01:39:40;;;;;;;0.00;0.00;;;7.50;99.90;;;;;;5056537;28;20132;-81
2022/09/29 01:42:21;;;;;;;0.00;0.00;;;7.50;99.90;;;;;;5039314;28;20103;-81
2022/09/29 01:45:11;;;;;;;0.00;0.00;;;7.50;99.90;;;;;;5039302;28;20396;-81
2022/09/29 01:47:49;;;;;;;0.00;0.00;;;7.50;99.90;;;;;;4998878;28;20105;-81
2022/09/29 01:50:29;;;;;;;5.53;1.08;;;7.40;99.90;;;;;;4982972;28;20065;-81
2022/09/29 01:53:10;;;;;;;0.00;0.00;;;7.40;99.90;;;;;;4999098;28;20149;-81
2022/09/29 01:55:43;;;;;;;0.00;0.00;;;7.30;99.90;;;;;;4998763;28;20068;-81
2022/09/29 01:58:16;;;;;;;0.05;0.05;;;7.20;99.90;;;;;;4999038;28;20065;-81
2022/09/29 02:00:50;;;;;;;0.00;0.00;;;7.10;99.90;;;;;;4998681;28;20041;-81
2022/09/29 02:03:34;;;;;;;0.00;0.00;;;7.10;99.90;;;;;;4982986;28;20071;-81
2022/09/29 02:06:05;;;;;;;0.00;0.00;;;7.00;99.90;;;;;;4983294;28;20057;-81
2022/09/29 02:08:54;;;;;;;0.10;0.00;;;7.00;99.90;;;;;;5004432;28;20050;-81
2022/09/29 02:11:20;;;;;;;0.00;0.00;;;7.00;99.90;;;;;;5006212;28;20069;-81
2022/09/29 02:14:15;;;;;;;0.00;0.00;;;6.90;99.90;;;;;;4999047;28;20073;-81
2022/09/29 02:16:47;;;;;;;0.00;0.00;;;6.80;99.90;;;;;;4982511;28;20054;-81
2022/09/29 02:19:21;;;;;;;0.00;0.00;;;6.80;99.90;;;;;;4998643;28;20064;-81
2022/09/29 02:21:47;;;;;;;0.00;0.00;;;6.70;99.90;;;;;;4982466;28;20061;-81
2022/09/29 02:24:14;;;;;;;0.00;0.00;;;6.70;99.90;;;;;;5014828;28;20059;-82
2022/09/29 02:26:40;;;;;;;0.00;0.00;;;6.60;99.90;;;;;;5055045;28;20080;-81
2022/09/29 02:29:07;;;;;;;0.00;0.00;;;6.60;99.90;;;;;;5038848;28;20060;-81
2022/09/29 02:31:34;;;;;;;0.00;0.00;;;6.60;99.90;;;;;;5055293;28;20048;-81
2022/09/29 02:34:02;;;;;;;0.00;0.00;;;6.60;99.90;;;;;;5055313;28;20060;-81
2022/09/29 02:36:50;;;;;;;0.00;0.00;;;6.60;99.90;;;;;;5038146;28;20049;-81
2022/09/29 02:39:21;;;;;;;0.00;0.00;;;6.60;99.90;;;;;;5055164;28;20045;-81
2022/09/29 02:42:29;;;;;;;0.00;0.00;;;6.60;99.90;;;;;;5055163;28;20076;-81
2022/09/29 02:45:14;;;;;;;0.13;0.10;;;6.60;99.90;;;;;;5046436;28;20076;-81
2022/09/29 02:48:10;;;;;;;0.00;0.00;;;6.60;99.90;;;;;;5038089;28;20048;-81
2022/09/29 02:51:09;;;;;;;0.00;0.00;;;6.50;99.90;;;;;;5038177;28;20049;-82
2022/09/29 02:53:56;;;;;;;0.10;0.10;;;6.50;99.90;;;;;;5055131;28;20515;-81
2022/09/29 02:56:45;;;;;;;0.00;0.00;;;6.50;99.90;;;;;;5055584;28;20053;-81
2022/09/29 02:59:17;;;;;;;0.00;0.00;;;6.50;99.90;;;;;;5038088;28;20041;-82
2022/09/29 03:01:50;;;;;;;0.00;0.00;;;6.50;99.90;;;;;;5038486;28;20064;-82
2022/09/29 03:04:16;;;;;;;0.00;0.00;;;6.50;99.90;;;;;;5038003;28;20045;-81
2022/09/29 03:06:42;;;;;;;0.13;0.13;;;6.50;99.90;;;;;;5054341;28;20099;-82
2022/09/29 03:09:08;;;;;;;0.00;0.00;;;6.50;99.90;;;;;;5038244;28;20382;-81
2022/09/29 03:11:33;;;;;;;0.00;0.00;;;6.40;99.90;;;;;;5054784;28;20037;-82
2022/09/29 03:13:59;;;;;;;0.00;0.00;;;6.30;99.90;;;;;;5054329;28;20397;-82
2022/09/29 03:16:25;;;;;;;0.13;0.10;;;6.20;99.90;;;;;;5038099;28;20463;-82
2022/09/29 03:18:51;;;;;;;0.00;0.00;;;6.20;99.90;;;;;;5037795;28;20143;-82
2022/09/29 03:21:17;;;;;;;0.00;0.00;;;6.20;99.90;;;;;;5054394;28;20045;-82
2022/09/29 03:23:42;;;;;;;0.00;0.00;;;6.10;99.90;;;;;;5054175;28;20080;-82
2022/09/29 03:26:08;;;;;;;0.10;0.10;;;6.20;99.90;;;;;;5053936;28;20076;-82
2022/09/29 03:28:34;;;;;;;0.08;0.08;;;6.10;99.90;;;;;;5037688;28;20048;-82
2022/09/29 03:31:08;;;;;;;0.00;0.00;;;6.10;99.90;;;;;;5053747;28;20049;-81
2022/09/29 03:33:38;;;;;;;0.00;0.00;;;6.10;99.90;;;;;;5037804;28;20048;-81
2022/09/29 03:36:05;;;;;;;0.00;0.00;;;6.00;99.90;;;;;;5053985;28;20284;-82
2022/09/29 03:38:32;;;;;;;0.00;0.00;;;6.00;99.90;;;;;;5054337;28;20493;-82
2022/09/29 03:40:58;;;;;;;0.00;0.00;;;6.00;99.90;;;;;;5037293;28;20064;-82
2022/09/29 03:43:23;;;;;;;0.05;0.05;;;6.00;99.90;;;;;;5049254;28;20045;-81
2022/09/29 03:45:51;;;;;;;0.32;0.00;;;6.00;99.90;;;;;;5052614;28;20063;-81
2022/09/29 03:48:18;;;;;;;0.00;0.00;;;6.00;99.90;;;;;;5056665;28;20045;-82
2022/09/29 03:50:45;;;;;;;1.35;0.65;;;6.00;99.90;;;;;;5052104;28;20493;-82
2022/09/29 03:53:11;;;;;;;0.00;0.00;;;6.00;99.90;;;;;;5053689;28;20092;-82
2022/09/29 03:55:36;;;;;;;0.00;0.00;;;6.10;99.90;;;;;;5053889;28;20051;-82
2022/09/29 03:58:02;;;;;;;0.00;0.00;;;6.20;99.90;;;;;;5053773;28;20479;-82
2022/09/29 04:00:27;;;;;;;0.00;0.00;;;6.00;99.90;;;;;;5037674;28;20401;-82
2022/09/29 04:02:54;;;;;;;0.00;0.00;;;6.00;99.90;;;;;;5053829;28;20041;-82
2022/09/29 04:05:19;;;;;;;0.00;0.00;;;6.00;99.90;;;;;;5037023;28;20409;-82
2022/09/29 04:07:45;;;;;;;0.00;0.00;;;6.00;99.90;;;;;;5053499;28;20094;-82
2022/09/29 04:10:11;;;;;;;0.00;0.00;;;5.90;99.90;;;;;;5053342;28;20055;-82
2022/09/29 04:12:36;;;;;;;0.32;0.00;;;5.90;99.90;;;;;;5036769;28;20049;-82
2022/09/29 04:15:03;;;;;;;0.38;0.00;;;5.90;99.90;;;;;;5053223;28;20081;-82
2022/09/29 04:17:29;;;;;;;0.10;0.10;;;5.90;99.90;;;;;;5036782;28;20060;-82
2022/09/29 04:19:54;;;;;;;0.00;0.00;;;5.80;99.90;;;;;;5053360;28;20049;-82
2022/09/29 04:22:20;;;;;;;0.00;0.00;;;5.80;99.90;;;;;;5036907;28;20048;-82
2022/09/29 04:24:47;;;;;;;0.00;0.00;;;5.70;99.90;;;;;;5036658;28;20045;-82
2022/09/29 04:27:16;;;;;;;0.00;0.00;;;5.70;99.90;;;;;;5053221;28;20037;-82
2022/09/29 04:29:41;;;;;;;0.00;0.00;;;5.60;99.90;;;;;;5053575;28;20096;-82
2022/09/29 04:32:07;;;;;;;0.10;0.05;;;5.60;99.90;;;;;;5036916;28;20093;-82
2022/09/29 04:34:33;;;;;;;0.05;0.05;;;5.60;99.90;;;;;;5036298;28;20052;-82
2022/09/29 04:36:59;;;;;;;0.00;0.00;;;5.50;99.90;;;;;;5053079;28;20098;-82
2022/09/29 04:39:25;;;;;;;0.00;0.00;;;5.60;99.90;;;;;;5036708;28;20049;-82
2022/09/29 04:41:51;;;;;;;0.00;0.00;;;5.50;99.90;;;;;;5053004;28;20052;-82
2022/09/29 04:44:19;;;;;;;1.20;0.00;;;5.40;99.90;;;;;;5037044;28;20048;-82
2022/09/29 04:46:44;;;;;;;0.00;0.00;;;5.40;99.90;;;;;;5036315;28;20493;-82
2022/09/29 04:49:10;;;;;;;0.00;0.00;;;5.40;99.90;;;;;;5053452;28;20048;-82
2022/09/29 04:51:36;;;;;;;0.00;0.00;;;5.40;99.90;;;;;;5036737;28;20435;-82
2022/09/29 04:54:02;;;;;;;0.00;0.00;;;5.30;99.90;;;;;;5052613;28;20072;-82
2022/09/29 04:56:30;;;;;;;0.03;0.00;;;5.30;99.90;;;;;;5052674;28;20080;-82
2022/09/29 04:58:57;;;;;;;0.30;0.17;;;5.40;99.90;;;;;;5036820;28;20544;-82
2022/09/29 05:01:23;;;;;;;0.08;0.00;;;5.40;99.90;;;;;;5054956;28;20041;-82
2022/09/29 05:03:49;;;;;;;0.00;0.00;;;5.30;99.90;;;;;;5040131;28;20044;-82
2022/09/29 05:06:16;;;;;;;0.00;0.00;;;5.30;99.90;;;;;;5057016;28;20049;-82
2022/09/29 05:08:41;;;;;;;0.00;0.00;;;5.30;99.90;;;;;;5056328;28;20063;-82
2022/09/29 05:11:08;;;;;;;0.00;0.00;;;5.30;99.90;;;;;;5057178;28;20044;-82
2022/09/29 05:13:34;;;;;;;0.00;0.00;;;5.30;99.90;;;;;;5040789;28;20132;-82
2022/09/29 05:16:00;;;;;;;0.20;0.20;;;5.30;99.90;;;;;;5052081;28;20207;-82
2022/09/29 05:18:26;;;;;;;0.00;0.00;;;5.30;99.90;;;;;;5077940;28;20044;-82
2022/09/29 05:20:52;;;;;;;0.10;0.00;;;5.30;99.90;;;;;;5063428;28;20056;-82
2022/09/29 05:23:18;;;;;;;0.00;0.00;;;5.30;99.90;;;;;;5039915;28;20052;-82
2022/09/29 05:25:44;;;;;;;0.00;0.00;;;5.20;99.90;;;;;;5039664;28;20090;-83
2022/09/29 05:28:10;;;;;;;0.17;0.17;;;5.20;99.90;;;;;;5056834;28;20370;-83
2022/09/29 05:30:37;;;;;;;0.00;0.00;;;5.20;99.90;;;;;;5040196;28;20045;-83
2022/09/29 05:33:03;;;;;;;0.00;0.00;;;5.30;99.90;;;;;;5039649;28;20053;-83
2022/09/29 05:35:29;;;;;;;0.00;0.00;;;5.30;99.90;;;;;;5056389;28;20497;-83
2022/09/29 05:37:55;;;;;;;0.00;0.00;;;5.30;99.90;;;;;;5039705;28;20049;-84
2022/09/29 05:40:23;;;;;;;0.10;0.00;;;5.30;99.90;;;;;;5055429;28;20469;-82
2022/09/29 05:42:49;;;;;;;0.10;0.00;;;5.30;99.90;;;;;;5039878;28;20049;-83
2022/09/29 05:45:16;;;;;;;0.10;0.10;;;5.40;99.90;;;;;;5055753;28;20043;-82
2022/09/29 05:47:42;;;;;;;0.00;0.00;;;5.40;99.90;;;;;;5055808;28;20041;-82
2022/09/29 05:50:10;;;;;;;0.00;0.00;;;5.40;99.90;;;;;;5055901;28;20049;-82
2022/09/29 05:52:36;;;;;;;0.00;0.00;;;5.40;99.90;;;;;;5055596;28;20045;-82
2022/09/29 05:55:01;;;;;;;0.00;0.00;;;5.40;99.90;;;;;;5055642;28;20049;-82
2022/09/29 05:57:27;;;;;;;0.00;0.00;;;5.50;99.90;;;;;;5055409;28;20044;-83
2022/09/29 05:59:53;;;;;;;0.00;0.00;;;5.50;99.90;;;;;;5039549;28;20049;-83
2022/09/29 06:02:18;;;;;;;0.00;0.00;;;5.50;99.90;;;;;;5038750;28;20086;-82
2022/09/29 06:04:44;;;;;;;0.00;0.00;;;5.50;99.90;;;;;;5055221;28;20045;-82
2022/09/29 06:07:10;;;;;;;0.00;0.00;;;5.50;99.90;;;;;;5038698;28;20045;-82
2022/09/29 06:09:35;;;;;;;0.00;0.00;;;5.50;99.90;;;;;;5055386;28;20138;-83
2022/09/29 06:12:02;;;;;;;0.00;0.00;;;5.60;99.90;;;;;;5055383;28;20049;-82
2022/09/29 06:14:28;;;;;;;0.00;0.00;;;5.60;99.90;;;;;;5055282;28;20052;-83
2022/09/29 06:16:53;;;;;;;0.65;0.30;;;5.60;99.90;;;;;;5039008;28;20143;-83
2022/09/29 06:19:19;;;;;;;0.00;0.00;;;5.60;99.90;;;;;;5039063;28;20412;-82
2022/09/29 06:21:44;;;;;;;0.00;0.00;;;5.70;99.90;;;;;;5055059;28;20473;-82
2022/09/29 06:24:10;;;;;;;0.00;0.00;;;5.60;99.90;;;;;;5038480;28;20052;-83
2022/09/29 06:26:36;;;;;;;0.00;0.00;;;5.70;99.90;;;;;;5052111;28;20037;-83
2022/09/29 06:29:03;;;;;;;0.00;0.00;;;5.70;99.90;;;;;;5052859;28;20053;-83
2022/09/29 06:31:30;;;;;;;0.10;0.10;;;5.80;99.90;;;;;;5053364;28;20460;-83
2022/09/29 06:33:58;;;;;;;0.10;0.10;;;5.80;99.90;;;;;;5052861;28;20056;-82
2022/09/29 06:39:20;;;;;;;0.00;0.00;;;5.90;99.90;;;;;;5053138;28;20478;-81
2022/09/29 06:41:52;;;;;;;0.08;0.08;;;6.00;99.90;;;;;;5036529;28;20053;-81
2022/09/29 06:44:23;;;;;;;0.00;0.00;;;6.10;99.90;;;;;;5052818;28;20087;-82
2022/09/29 06:46:50;;;;;;;0.00;0.00;;;6.10;99.90;;;;;;5035499;28;20067;-83
2022/09/29 06:49:16;;;;;;;0.00;0.00;;;6.20;99.90;;;;;;5058359;28;20038;-82
2022/09/29 06:51:42;;;;;;;0.45;0.45;;;6.30;99.90;;;;;;5074677;28;20050;-82
2022/09/29 06:54:09;;;;;;;1.00;0.28;;;6.20;99.90;;;;;;5074354;28;20044;-82
2022/09/29 06:56:35;;;;;;;0.00;0.00;;;6.30;99.90;;;;;;5059413;28;20041;-82
2022/09/29 06:59:00;;;;;;;0.00;0.00;;;6.30;99.90;;;;;;5054434;28;20115;-82
2022/09/29 07:01:26;;;;;;;0.00;0.00;;;6.30;99.90;;;;;;5037913;28;20083;-82
2022/09/29 07:03:52;;;;;;;0.00;0.00;;;6.30;99.90;;;;;;5054384;28;20136;-82
2022/09/29 07:06:17;;;;;;;0.00;0.00;;;6.40;99.90;;;;;;5054601;28;20041;-82
2022/09/29 07:08:43;;;;;;;0.00;0.00;;;6.40;99.90;;;;;;5055210;28;20047;-82
2022/09/29 07:11:10;;;;;;;0.00;0.00;;;6.40;99.90;;;;;;5054299;28;20135;-82
2022/09/29 07:13:37;;;;;;;0.00;0.00;;;6.50;99.90;;;;;;5054422;28;20045;-82
2022/09/29 07:16:10;;;;;;;0.00;0.00;;;6.60;99.90;;;;;;5054210;28;20103;-82
2022/09/29 07:18:37;;;;;;;0.10;0.10;;;6.70;99.90;;;;;;5054097;28;20095;-82
2022/09/29 07:21:04;;;;;;;0.00;0.00;;;6.80;99.90;;;;;;5054018;28;20045;-82
2022/09/29 07:23:30;;;;;;;0.22;0.00;;;6.90;99.90;;;;;;5053422;28;20086;-82
2022/09/29 07:25:55;;;;;;;0.00;0.00;;;6.90;99.90;;;;;;5053437;28;20075;-82
2022/09/29 07:28:21;;;;;;;0.00;0.00;;;7.00;99.90;;;;;;5037043;28;20037;-82
2022/09/29 07:31:00;;;;;;;0.00;0.00;;;7.00;99.90;;;;;;5037386;28;20055;-82
2022/09/29 07:33:26;;;;;;;0.00;0.00;;;7.00;99.90;;;;;;5054492;28;20052;-83
2022/09/29 07:35:53;;;;;;;0.15;0.00;;;7.10;99.90;;;;;;5053853;28;20033;-83
2022/09/29 07:38:19;;;;;;;0.00;0.00;;;7.20;99.90;;;;;;5053724;28;20049;-83
2022/09/29 07:40:45;;;;;;;0.00;0.00;;;7.30;99.90;;;;;;5053260;28;20052;-83
2022/09/29 07:43:11;;;;;;;0.35;0.00;;;7.30;99.90;;;;;;5053349;28;20396;-83
2022/09/29 07:45:37;;;;;;;0.00;0.00;;;7.40;99.90;;;;;;5036411;28;20037;-83
2022/09/29 07:48:03;;;;;;;0.08;0.00;;;7.50;99.90;;;;;;5053619;28;20041;-83
2022/09/29 07:50:28;;;;;;;0.00;0.00;;;7.50;99.90;;;;;;5053545;28;20059;-83
2022/09/29 07:52:54;;;;;;;0.10;0.10;;;7.50;99.90;;;;;;5037309;28;20041;-83
2022/09/29 07:55:20;;;;;;;0.00;0.00;;;7.70;99.90;;;;;;5053663;28;20042;-83
2022/09/29 07:57:49;;;;;;;0.00;0.00;;;7.80;99.90;;;;;;5053601;28;20094;-83
2022/09/29 08:00:16;;;;;;;0.70;0.00;;;7.90;99.90;;;;;;5036823;28;20052;-83
2022/09/29 08:02:42;;;;;;;0.05;0.05;;;8.00;99.90;;;;;;5036942;28;20049;-83
2022/09/29 08:05:08;;;;;;;0.10;0.10;;;8.10;99.90;;;;;;5053009;28;20047;-82
2022/09/29 08:07:34;;;;;;;0.00;0.00;;;8.20;99.90;;;;;;5052893;28;20095;-83
2022/09/29 08:10:00;;;;;;;0.05;0.05;;;8.30;99.90;;;;;;5036689;28;20080;-83
2022/09/29 08:12:26;;;;;;;0.00;0.00;;;8.30;99.90;;;;;;5036695;28;20045;-83
2022/09/29 08:14:51;;;;;;;0.00;0.00;;;8.40;99.90;;;;;;5053242;28;20057;-83
2022/09/29 08:17:17;;;;;;;0.00;0.00;;;8.40;99.90;;;;;;5053368;28;20045;-83
2022/09/29 08:19:43;;;;;;;0.00;0.00;;;8.50;99.90;;;;;;5032920;28;20416;-83
2022/09/29 08:22:08;;;;;;;0.00;0.00;;;8.40;99.90;;;;;;5034218;28;20053;-83
2022/09/29 08:24:35;;;;;;;0.00;0.00;;;8.40;99.90;;;;;;5072639;28;20048;-82
2022/09/29 08:27:04;;;;;;;0.00;0.00;;;8.50;99.90;;;;;;5053122;28;20045;-83
2022/09/29 08:29:29;;;;;;;0.00;0.00;;;8.60;99.90;;;;;;5053312;28;20041;-83
2022/09/29 08:31:55;;;;;;;0.08;0.08;;;8.70;99.90;;;;;;5036991;28;20049;-83
2022/09/29 08:34:21;;;;;;;0.85;0.30;;;8.90;99.90;;;;;;5053459;28;20041;-83
2022/09/29 08:36:47;;;;;;;0.00;0.00;;;9.00;99.90;;;;;;5056460;28;20087;-83
2022/09/29 08:39:14;;;;;;;0.00;0.00;;;9.20;99.90;;;;;;5040622;28;20052;-83
2022/09/29 08:42:12;;;;;;;0.00;0.00;;;9.40;99.90;;;;;;5040367;28;20144;-82
2022/09/29 08:44:46;;;;;;;0.10;0.00;;;9.60;99.90;;;;;;5041148;28;20048;-87
2022/09/29 08:47:28;;;;;;;0.00;0.00;;;9.70;99.90;;;;;;5041158;28;20057;-83
2022/09/29 08:50:02;;;;;;;0.00;0.00;;;9.90;99.90;;;;;;5056699;28;20084;-83
2022/09/29 08:52:32;;;;;;;0.00;0.00;;;10.20;99.90;;;;;;5057529;28;20056;-83
2022/09/29 08:55:16;;;;;;;0.43;0.10;;;10.40;99.90;;;;;;5040713;28;20059;-84
2022/09/29 08:57:43;;;;;;;0.00;0.00;;;10.70;99.90;;;;;;5057168;28;20041;-84
2022/09/29 09:00:13;;;;;;;0.65;0.10;;;10.90;99.90;;;;;;5056750;28;20048;-83
2022/09/29 09:02:58;;;;;;;0.00;0.00;;;11.10;99.90;;;;;;5056840;28;20049;-84
2022/09/29 09:05:52;;;;;;;0.00;0.00;;;11.20;99.90;;;;;;5057170;28;20045;-84
2022/09/29 09:08:20;;;;;;;0.10;0.10;;;11.30;99.90;;;;;;5040040;28;20107;-83
2022/09/29 09:11:10;;;;;;;0.00;0.00;;;11.50;99.90;;;;;;5056797;28;20135;-83
2022/09/29 09:14:06;;;;;;;0.10;0.10;;;11.60;99.90;;;;;;5038399;28;20060;-85
2022/09/29 09:16:51;;;;;;;0.00;0.00;;;11.80;99.90;;;;;;5039778;28;20145;-84
2022/09/29 09:20:02;;;;;;;0.10;0.10;;;11.80;99.90;;;;;;5056815;28;20045;-85
2022/09/29 09:22:37;;;;;;;0.10;0.10;;;12.00;99.90;;;;;;5039790;28;20049;-84
2022/09/29 09:25:21;;;;;;;0.00;0.00;;;12.30;99.90;;;;;;5039836;28;20408;-84
2022/09/29 09:28:13;;;;;;;0.95;0.28;;;12.30;99.90;;;;;;5040379;28;20045;-84
2022/09/29 09:31:00;;;;;;;0.00;0.00;;;12.20;99.90;;;;;;5056448;28;20544;-85
2022/09/29 09:33:51;;;;;;;0.00;0.00;;;12.40;99.90;;;;;;5040101;28;20493;-85
2022/09/29 09:36:21;;;;;;;0.00;0.00;;;12.50;99.90;;;;;;5056423;28;20059;-84
2022/09/29 09:38:53;;;;;;;0.00;0.00;;;12.50;99.90;;;;;;5039572;28;20481;-84
2022/09/29 09:41:23;;;;;;;0.00;0.00;;;12.70;99.90;;;;;;5056076;28;20103;-84
2022/09/29 09:44:09;;;;;;;0.20;0.15;;;12.90;99.90;;;;;;5039622;28;20115;-84
2022/09/29 09:46:39;;;;;;;0.10;0.00;;;13.10;99.90;;;;;;5056166;28;20041;-84
2022/09/29 09:49:17;;;;;;;0.00;0.00;;;13.00;99.90;;;;;;5039339;28;20049;-84
2022/09/29 09:51:53;;;;;;;0.00;0.00;;;13.20;99.90;;;;;;5056141;28;20051;-85
2022/09/29 09:54:52;;;;;;;0.00;0.00;;;13.20;99.90;;;;;;5038924;28;20448;-84
2022/09/29 09:57:52;;;;;;;0.10;0.10;;;13.10;99.90;;;;;;4998779;28;20510;-84
2022/09/29 10:00:24;;;;;;;1.02;0.45;;;13.20;99.90;;;;;;4995330;28;20057;-84
2022/09/29 10:02:54;;;;;;;0.08;0.08;;;13.20;99.90;;;;;;4995671;28;20141;-84
2022/09/29 10:05:28;;;;;;;0.40;0.20;;;13.50;99.90;;;;;;4979439;28;20096;-85
2022/09/29 10:07:54;;;;;;;0.00;0.00;;;13.70;99.90;;;;;;4981462;28;20081;-85
2022/09/29 10:10:23;;;;;;;0.03;0.00;;;14.00;99.90;;;;;;4987597;28;20148;-84
2022/09/29 10:13:11;;;;;;;0.45;0.25;;;14.00;99.90;;;;;;4972472;28;20062;-84
2022/09/29 10:15:47;;;;;;;0.00;0.00;;;14.10;99.90;;;;;;4980013;28;20061;-83
2022/09/29 10:18:18;;;;;;;0.00;0.00;;;14.30;99.90;;;;;;4979060;28;20497;-82
2022/09/29 10:20:44;;;;;;;0.20;0.00;;;14.60;99.90;;;;;;4978901;28;20066;-82
2022/09/29 10:23:33;;;;;;;0.00;0.00;;;14.70;99.90;;;;;;4978878;28;20398;-82
2022/09/29 10:25:58;;;;;;;0.20;0.10;;;15.10;99.90;;;;;;4979233;28;20050;-84
2022/09/29 10:28:26;;;;;;;0.08;0.08;;;15.30;99.90;;;;;;4978811;28;20553;-82
2022/09/29 10:30:53;;;;;;;0.00;0.00;;;15.30;99.90;;;;;;4962452;28;20046;-82
2022/09/29 10:33:22;;;;;;;0.25;0.00;;;15.40;99.90;;;;;;4974115;28;20064;-82
2022/09/29 10:36:01;;;;;;;0.10;0.10;;;15.50;99.90;;;;;;5054979;28;20053;-84
2022/09/29 10:38:27;;;;;;;0.10;0.10;;;15.50;99.90;;;;;;5038687;28;20115;-82
2022/09/29 10:41:04;;;;;;;0.00;0.00;;;15.70;99.90;;;;;;5054641;28;20401;-82
2022/09/29 10:43:41;;;;;;;0.22;0.22;;;15.90;99.90;;;;;;5055305;28;20056;-82
2022/09/29 10:46:37;;;;;;;0.85;0.00;;;16.00;99.90;;;;;;5054641;28;20053;-82
2022/09/29 10:49:29;;;;;;;0.00;0.00;;;16.10;99.90;;;;;;5055622;28;20063;-83
2022/09/29 10:52:04;;;;;;;0.00;0.00;;;16.10;99.90;;;;;;5051264;28;20059;-83
2022/09/29 10:54:35;;;;;;;0.00;0.00;;;16.20;99.90;;;;;;5038299;28;20137;-83
2022/09/29 10:57:14;;;;;;;0.55;0.00;;;16.20;99.90;;;;;;5054613;28;20519;-82
2022/09/29 10:59:52;;;;;;;0.57;0.22;;;16.40;99.90;;;;;;5054192;28;20049;-83
2022/09/29 11:02:38;;;;;;;1.10;0.35;;;16.40;99.90;;;;;;5037940;28;20504;-83
2022/09/29 11:05:19;;;;;;;0.15;0.15;;;16.40;99.90;;;;;;5038051;28;20110;-83
2022/09/29 11:07:48;;;;;;;0.00;0.00;;;16.50;99.90;;;;;;5055331;28;20377;-83
2022/09/29 11:10:30;;;;;;;0.15;0.15;;;16.60;99.90;;;;;;5054508;28;20037;-84
2022/09/29 11:12:59;;;;;;;0.25;0.00;;;16.50;99.90;;;;;;5054282;28;20106;-82
2022/09/29 11:15:39;;;;;;;0.08;0.00;;;16.50;99.90;;;;;;5037746;28;20143;-83
2022/09/29 11:18:23;;;;;;;0.00;0.00;;;16.50;99.90;;;;;;5037805;28;20060;-83
2022/09/29 11:21:06;;;;;;;0.50;0.32;;;16.70;99.90;;;;;;5038958;28;20103;-83
2022/09/29 11:23:35;;;;;;;0.00;0.00;;;16.70;99.90;;;;;;5037475;28;20061;-82
2022/09/29 11:26:11;;;;;;;0.00;0.00;;;16.60;99.90;;;;;;5053858;28;20098;-83
2022/09/29 11:28:54;;;;;;;0.00;0.00;;;16.60;99.90;;;;;;5041537;28;20049;-83
2022/09/29 11:31:51;;;;;;;0.20;0.10;;;16.70;99.90;;;;;;5065090;28;20045;-83
2022/09/29 11:35:04;;;;;;;0.00;0.00;;;16.70;99.90;;;;;;5073930;28;20040;-83
2022/09/29 11:37:45;;;;;;;0.13;0.13;;;16.70;99.90;;;;;;5018457;28;20090;-85
2022/09/29 11:40:18;;;;;;;0.28;0.28;;;16.80;99.90;;;;;;5015569;28;20485;-83
2022/09/29 11:43:21;;;;;;;0.00;0.00;;;16.90;99.90;;;;;;5013769;28;20132;-85
2022/09/29 11:46:01;;;;;;;0.15;0.10;;;16.80;99.90;;;;;;4999655;28;20127;-85
2022/09/29 11:49:00;;;;;;;0.22;0.20;;;16.90;99.90;;;;;;5015869;28;20497;-85
2022/09/29 11:51:30;;;;;;;0.10;0.03;;;17.00;99.90;;;;;;5016103;28;20045;-85
2022/09/29 11:54:31;;;;;;;0.10;0.10;;;16.80;99.90;;;;;;5015481;28;20489;-84
2022/09/29 11:57:02;;;;;;;0.00;0.00;;;16.90;99.90;;;;;;4938088;29;20047;-85
2022/09/29 11:59:49;;;;;;;0.00;0.00;;;17.10;99.90;;;;;;4937956;29;20146;-84
2022/09/29 12:02:27;;;;;;;0.00;0.00;;;17.10;99.90;;;;;;4926454;29;20130;-85
2022/09/29 12:04:55;;;;;;;0.25;0.25;;;17.20;99.90;;;;;;4904442;29;20043;-84
2022/09/29 12:07:51;;;;;;;0.13;0.13;;;17.40;99.90;;;;;;4923891;29;20067;-85
2022/09/29 12:10:20;;;;;;;0.10;0.03;;;17.40;99.90;;;;;;4939710;29;20067;-84
2022/09/29 12:13:01;;;;;;;0.00;0.00;;;17.60;99.90;;;;;;4935310;29;20087;-84
2022/09/29 12:15:41;;;;;;;0.63;0.32;;;17.80;99.90;;;;;;4977030;28;20065;-85
2022/09/29 12:18:19;;;;;;;0.20;0.20;;;18.00;99.90;;;;;;4976467;28;20101;-84
2022/09/29 12:20:48;;;;;;;0.13;0.13;;;18.20;99.90;;;;;;4992954;28;20042;-85
2022/09/29 12:23:19;;;;;;;0.00;0.00;;;18.50;99.90;;;;;;4976693;28;20069;-85
2022/09/29 12:25:55;;;;;;;0.00;0.00;;;18.70;99.90;;;;;;4992973;28;20049;-84
2022/09/29 12:28:26;;;;;;;0.13;0.13;;;18.80;99.90;;;;;;4960600;28;20046;-84
2022/09/29 12:31:08;;;;;;;0.00;0.00;;;18.80;97.60;;;;;;5001813;28;20064;-85
2022/09/29 12:33:45;;;;;;;0.00;0.00;;;18.90;97.90;;;;;;5033551;28;20054;-85
2022/09/29 12:39:10;;;;;;;0.10;0.00;;;18.60;97.80;;;;;;5032662;28;20089;-84
2022/09/29 12:41:40;;;;;;;0.00;0.00;;;18.50;98.70;;;;;;5032899;28;20504;-84
2022/09/29 12:44:37;;;;;;;0.10;0.00;;;18.40;97.50;;;;;;5016878;28;20088;-84
2022/09/29 12:47:13;;;;;;;0.00;0.00;;;18.30;99.60;;;;;;5049642;28;20111;-84
2022/09/29 12:49:50;;;;;;;0.00;0.00;;;18.30;99.00;;;;;;5033381;28;20048;-84
2022/09/29 12:52:32;;;;;;;0.00;0.00;;;18.30;97.60;;;;;;5033356;28;20064;-84
2022/09/29 12:55:04;;;;;;;0.10;0.03;;;18.10;98.50;;;;;;5032576;28;20053;-84
2022/09/29 12:57:38;;;;;;;0.20;0.00;;;18.10;99.20;;;;;;5032792;28;20087;-83
2022/09/29 13:00:12;;;;;;;0.00;0.00;;;18.00;98.30;;;;;;5032936;28;20042;-84
2022/09/29 13:02:52;;;;;;;0.00;0.00;;;18.00;98.00;;;;;;5032965;28;20053;-84
2022/09/29 13:05:45;;;;;;;0.00;0.00;;;18.10;98.10;;;;;;5032765;28;20485;-84
2022/09/29 13:08:52;;;;;;;0.00;0.00;;;18.20;99.90;;;;;;5032223;28;20060;-84
2022/09/29 13:12:06;;;;;;;0.00;0.00;;;18.10;99.90;;;;;;5032169;28;20551;-84
2022/09/29 13:14:59;;;;;;;0.00;0.00;;;18.10;98.30;;;;;;5031632;28;20057;-83
2022/09/29 13:17:51;;;;;;;0.00;0.00;;;18.00;99.50;;;;;;5015053;28;20602;-84
2022/09/29 13:20:31;;;;;;;0.20;0.20;;;18.00;99.10;;;;;;5015333;28;20128;-85
2022/09/29 13:23:26;;;;;;;0.32;0.20;;;17.90;99.90;;;;;;5017910;28;20586;-84
2022/09/29 13:26:01;;;;;;;;;;;17.80;99.90;;;;;;5018961;28;20056;-84
2022/09/29 13:28:40;;;;;;;0.00;0.00;;;17.90;99.90;;;;;;5035774;28;19968;-84